sensor_id;sensor_type;location;lat;lon;timestamp;pressure;altitude;pressure_sealevel;temperature;humidity
66385;BME280;53426;55.872;37.462;2023-02-20T00:00:58;97145.25;;;-4.74;71.10
66385;BME280;53426;55.872;37.462;2023-02-20T00:03:24;97134.53;;;-4.68;71.45
66385;BME280;53426;55.872;37.462;2023-02-20T00:05:50;97141.38;;;-4.67;70.63
66385;BME280;53426;55.872;37.462;2023-02-20T00:08:16;97143.78;;;-4.78;71.00
66385;BME280;53426;55.872;37.462;2023-02-20T00:10:41;97142.03;;;-4.91;70.98
66385;BME280;53426;55.872;37.462;2023-02-20T00:13:07;97138.44;;;-5.03;71.09
66385;BME280;53426;55.872;37.462;2023-02-20T00:15:33;97141.94;;;-5.04;70.84
66385;BME280;53426;55.872;37.462;2023-02-20T00:18:02;97123.50;;;-5.26;71.39
66385;BME280;53426;55.872;37.462;2023-02-20T00:20:27;97144.69;;;-5.21;71.16
66385;BME280;53426;55.872;37.462;2023-02-20T00:22:55;97128.75;;;-5.28;71.23
66385;BME280;53426;55.872;37.462;2023-02-20T00:25:21;97140.56;;;-5.24;71.68
66385;BME280;53426;55.872;37.462;2023-02-20T00:27:47;97135.28;;;-5.36;71.21
66385;BME280;53426;55.872;37.462;2023-02-20T00:30:18;97143.75;;;-5.34;71.86
66385;BME280;53426;55.872;37.462;2023-02-20T00:32:46;97143.22;;;-5.25;71.45
66385;BME280;53426;55.872;37.462;2023-02-20T00:35:12;97137.38;;;-5.29;71.18
66385;BME280;53426;55.872;37.462;2023-02-20T00:37:39;97130.69;;;-5.31;71.26
66385;BME280;53426;55.872;37.462;2023-02-20T00:40:05;97143.38;;;-5.28;71.29
66385;BME280;53426;55.872;37.462;2023-02-20T00:42:31;97135.84;;;-5.31;70.85
66385;BME280;53426;55.872;37.462;2023-02-20T00:44:59;97135.09;;;-5.33;70.89
66385;BME280;53426;55.872;37.462;2023-02-20T00:47:24;97132.03;;;-5.54;71.15
66385;BME280;53426;55.872;37.462;2023-02-20T00:49:50;97120.25;;;-5.58;71.47
66385;BME280;53426;55.872;37.462;2023-02-20T00:52:16;97136.19;;;-5.52;71.22
66385;BME280;53426;55.872;37.462;2023-02-20T00:54:42;97134.53;;;-5.53;71.39
66385;BME280;53426;55.872;37.462;2023-02-20T00:57:08;97131.59;;;-5.46;71.69
66385;BME280;53426;55.872;37.462;2023-02-20T00:59:34;97129.16;;;-5.50;71.36
66385;BME280;53426;55.872;37.462;2023-02-20T01:02:00;97137.09;;;-5.53;71.19
66385;BME280;53426;55.872;37.462;2023-02-20T01:04:25;97122.81;;;-5.58;71.37
66385;BME280;53426;55.872;37.462;2023-02-20T01:06:51;97133.34;;;-5.47;71.63
66385;BME280;53426;55.872;37.462;2023-02-20T01:09:17;97129.16;;;-5.64;71.33
66385;BME280;53426;55.872;37.462;2023-02-20T01:11:44;97133.44;;;-5.78;71.26
66385;BME280;53426;55.872;37.462;2023-02-20T01:14:11;97122.72;;;-5.86;71.79
66385;BME280;53426;55.872;37.462;2023-02-20T01:16:42;97135.91;;;-5.91;71.54
66385;BME280;53426;55.872;37.462;2023-02-20T01:19:08;97125.13;;;-5.98;72.28
66385;BME280;53426;55.872;37.462;2023-02-20T01:21:33;97123.78;;;-6.05;72.41
66385;BME280;53426;55.872;37.462;2023-02-20T01:23:59;97128.78;;;-6.02;72.14
66385;BME280;53426;55.872;37.462;2023-02-20T01:26:25;97142.59;;;-6.03;72.66
66385;BME280;53426;55.872;37.462;2023-02-20T01:28:51;97138.00;;;-5.98;72.82
66385;BME280;53426;55.872;37.462;2023-02-20T01:31:17;97143.50;;;-6.04;72.37
66385;BME280;53426;55.872;37.462;2023-02-20T01:33:43;97144.31;;;-6.03;72.68
66385;BME280;53426;55.872;37.462;2023-02-20T01:36:10;97134.59;;;-5.98;72.91
66385;BME280;53426;55.872;37.462;2023-02-20T01:38:37;97141.59;;;-6.00;72.62
66385;BME280;53426;55.872;37.462;2023-02-20T01:41:04;97135.69;;;-6.02;72.79
66385;BME280;53426;55.872;37.462;2023-02-20T01:43:30;97140.16;;;-5.90;72.76
66385;BME280;53426;55.872;37.462;2023-02-20T01:48:48;97136.94;;;-5.79;72.00
66385;BME280;53426;55.872;37.462;2023-02-20T01:51:15;97138.50;;;-5.91;72.20
66385;BME280;53426;55.872;37.462;2023-02-20T01:53:42;97143.28;;;-5.85;72.35
66385;BME280;53426;55.872;37.462;2023-02-20T01:56:08;97149.78;;;-5.64;72.65
66385;BME280;53426;55.872;37.462;2023-02-20T01:58:40;97141.00;;;-5.45;72.40
66385;BME280;53426;55.872;37.462;2023-02-20T02:01:08;97147.91;;;-5.32;71.39
66385;BME280;53426;55.872;37.462;2023-02-20T02:03:38;97155.72;;;-5.33;71.01
66385;BME280;53426;55.872;37.462;2023-02-20T02:06:06;97153.56;;;-5.55;71.25
66385;BME280;53426;55.872;37.462;2023-02-20T02:08:34;97154.31;;;-5.53;71.09
66385;BME280;53426;55.872;37.462;2023-02-20T02:11:02;97149.63;;;-5.46;71.04
66385;BME280;53426;55.872;37.462;2023-02-20T02:13:29;97153.91;;;-5.61;71.33
66385;BME280;53426;55.872;37.462;2023-02-20T02:22:19;97152.22;;;-5.32;71.16
66385;BME280;53426;55.872;37.462;2023-02-20T02:42:08;97161.22;;;-5.39;70.89
66385;BME280;53426;55.872;37.462;2023-02-20T02:47:29;97154.13;;;-5.50;71.26
66385;BME280;53426;55.872;37.462;2023-02-20T02:50:01;97167.41;;;-5.42;71.00
66385;BME280;53426;55.872;37.462;2023-02-20T02:52:30;97179.41;;;-5.41;70.71
66385;BME280;53426;55.872;37.462;2023-02-20T02:55:07;97175.72;;;-5.37;70.72
66385;BME280;53426;55.872;37.462;2023-02-20T02:57:33;97167.56;;;-5.45;71.16
66385;BME280;53426;55.872;37.462;2023-02-20T03:00:05;97166.94;;;-5.34;71.15
66385;BME280;53426;55.872;37.462;2023-02-20T03:02:34;97167.97;;;-5.23;71.08
66385;BME280;53426;55.872;37.462;2023-02-20T03:05:05;97167.00;;;-5.20;70.48
66385;BME280;53426;55.872;37.462;2023-02-20T03:07:35;97165.53;;;-5.24;70.26
66385;BME280;53426;55.872;37.462;2023-02-20T03:10:08;97181.91;;;-5.25;70.70
66385;BME280;53426;55.872;37.462;2023-02-20T03:12:39;97181.06;;;-5.26;70.28
66385;BME280;53426;55.872;37.462;2023-02-20T03:15:31;97164.47;;;-5.36;70.29
66385;BME280;53426;55.872;37.462;2023-02-20T03:18:33;97181.06;;;-5.26;70.46
66385;BME280;53426;55.872;37.462;2023-02-20T03:21:10;97162.72;;;-5.35;69.81
66385;BME280;53426;55.872;37.462;2023-02-20T03:23:42;97183.38;;;-5.35;70.37
66385;BME280;53426;55.872;37.462;2023-02-20T03:26:12;97189.25;;;-5.33;70.22
66385;BME280;53426;55.872;37.462;2023-02-20T03:29:12;97181.78;;;-5.38;70.87
66385;BME280;53426;55.872;37.462;2023-02-20T03:31:47;97187.97;;;-5.26;70.50
66385;BME280;53426;55.872;37.462;2023-02-20T03:34:16;97184.84;;;-5.17;70.18
66385;BME280;53426;55.872;37.462;2023-02-20T03:37:13;97192.31;;;-5.13;69.80
66385;BME280;53426;55.872;37.462;2023-02-20T03:40:04;97174.38;;;-5.00;69.57
66385;BME280;53426;55.872;37.462;2023-02-20T03:42:55;97181.91;;;-5.11;69.20
66385;BME280;53426;55.872;37.462;2023-02-20T03:45:44;97184.28;;;-5.22;69.66
66385;BME280;53426;55.872;37.462;2023-02-20T03:48:37;97185.31;;;-5.25;69.52
66385;BME280;53426;55.872;37.462;2023-02-20T03:51:06;97187.50;;;-5.33;68.97
66385;BME280;53426;55.872;37.462;2023-02-20T03:53:46;97186.66;;;-5.33;69.56
66385;BME280;53426;55.872;37.462;2023-02-20T03:56:19;97185.47;;;-5.28;69.15
66385;BME280;53426;55.872;37.462;2023-02-20T03:58:54;97187.50;;;-5.33;69.63
66385;BME280;53426;55.872;37.462;2023-02-20T04:01:22;97182.25;;;-5.45;69.43
66385;BME280;53426;55.872;37.462;2023-02-20T04:03:51;97178.44;;;-5.54;69.66
66385;BME280;53426;55.872;37.462;2023-02-20T04:06:22;97162.31;;;-5.58;69.92
66385;BME280;53426;55.872;37.462;2023-02-20T04:09:01;97166.38;;;-5.39;70.13
66385;BME280;53426;55.872;37.462;2023-02-20T04:14:17;97165.75;;;-5.29;69.70
66385;BME280;53426;55.872;37.462;2023-02-20T04:16:54;97173.13;;;-5.37;69.65
66385;BME280;53426;55.872;37.462;2023-02-20T04:19:20;97189.88;;;-5.44;69.93
66385;BME280;53426;55.872;37.462;2023-02-20T04:21:54;97178.56;;;-5.41;69.83
66385;BME280;53426;55.872;37.462;2023-02-20T04:24:41;97186.03;;;-5.37;70.05
66385;BME280;53426;55.872;37.462;2023-02-20T04:27:08;97183.00;;;-5.29;69.65
66385;BME280;53426;55.872;37.462;2023-02-20T04:29:43;97193.88;;;-5.24;69.20
66385;BME280;53426;55.872;37.462;2023-02-20T04:32:13;97187.63;;;-5.50;69.48
66385;BME280;53426;55.872;37.462;2023-02-20T04:34:40;97198.75;;;-5.64;69.62
66385;BME280;53426;55.872;37.462;2023-02-20T04:37:12;97198.44;;;-5.73;69.64
66385;BME280;53426;55.872;37.462;2023-02-20T04:39:39;97202.44;;;-5.68;69.70
66385;BME280;53426;55.872;37.462;2023-02-20T04:42:05;97203.22;;;-5.52;69.77
66385;BME280;53426;55.872;37.462;2023-02-20T04:44:31;97196.19;;;-5.50;69.54
66385;BME280;53426;55.872;37.462;2023-02-20T04:47:10;97204.56;;;-5.30;69.25
66385;BME280;53426;55.872;37.462;2023-02-20T04:49:37;97202.13;;;-5.33;69.41
66385;BME280;53426;55.872;37.462;2023-02-20T04:52:05;97213.13;;;-5.30;69.27
66385;BME280;53426;55.872;37.462;2023-02-20T04:54:32;97182.81;;;-5.26;69.67
66385;BME280;53426;55.872;37.462;2023-02-20T04:56:59;97204.66;;;-5.18;69.06
66385;BME280;53426;55.872;37.462;2023-02-20T04:59:25;97202.81;;;-5.16;69.05
66385;BME280;53426;55.872;37.462;2023-02-20T05:01:51;97204.78;;;-5.19;68.80
66385;BME280;53426;55.872;37.462;2023-02-20T05:04:19;97210.84;;;-5.20;69.33
66385;BME280;53426;55.872;37.462;2023-02-20T05:06:49;97218.78;;;-5.09;69.21
66385;BME280;53426;55.872;37.462;2023-02-20T05:09:19;97207.34;;;-5.05;68.83
66385;BME280;53426;55.872;37.462;2023-02-20T05:11:44;97203.16;;;-4.92;68.45
66385;BME280;53426;55.872;37.462;2023-02-20T05:14:11;97205.72;;;-4.92;68.85
66385;BME280;53426;55.872;37.462;2023-02-20T05:16:38;97204.41;;;-4.99;67.90
66385;BME280;53426;55.872;37.462;2023-02-20T05:19:05;97216.88;;;-4.91;67.81
66385;BME280;53426;55.872;37.462;2023-02-20T05:21:32;97213.81;;;-4.98;67.72
66385;BME280;53426;55.872;37.462;2023-02-20T05:24:16;97216.75;;;-4.90;67.68
66385;BME280;53426;55.872;37.462;2023-02-20T05:26:42;97216.38;;;-5.12;67.26
66385;BME280;53426;55.872;37.462;2023-02-20T05:29:17;97218.56;;;-5.20;68.29
66385;BME280;53426;55.872;37.462;2023-02-20T05:31:47;97200.66;;;-5.37;67.78
66385;BME280;53426;55.872;37.462;2023-02-20T05:34:13;97211.50;;;-5.46;67.70
66385;BME280;53426;55.872;37.462;2023-02-20T05:36:39;97212.25;;;-5.44;68.17
66385;BME280;53426;55.872;37.462;2023-02-20T05:39:05;97197.78;;;-5.47;67.91
66385;BME280;53426;55.872;37.462;2023-02-20T05:41:34;97220.19;;;-5.33;68.05
66385;BME280;53426;55.872;37.462;2023-02-20T05:44:02;97215.16;;;-5.51;68.09
66385;BME280;53426;55.872;37.462;2023-02-20T05:46:29;97206.69;;;-5.53;68.33
66385;BME280;53426;55.872;37.462;2023-02-20T05:48:55;97185.31;;;-5.55;67.92
66385;BME280;53426;55.872;37.462;2023-02-20T05:51:29;97210.16;;;-5.38;67.20
66385;BME280;53426;55.872;37.462;2023-02-20T05:53:55;97215.22;;;-5.36;66.87
66385;BME280;53426;55.872;37.462;2023-02-20T05:56:21;97229.25;;;-5.26;66.82
66385;BME280;53426;55.872;37.462;2023-02-20T05:58:48;97228.28;;;-5.10;66.67
66385;BME280;53426;55.872;37.462;2023-02-20T06:01:23;97241.50;;;-5.30;66.71
66385;BME280;53426;55.872;37.462;2023-02-20T06:03:50;97228.19;;;-5.38;67.04
66385;BME280;53426;55.872;37.462;2023-02-20T06:06:16;97236.63;;;-5.20;66.95
66385;BME280;53426;55.872;37.462;2023-02-20T06:08:42;97243.47;;;-5.19;66.88
66385;BME280;53426;55.872;37.462;2023-02-20T06:11:10;97241.34;;;-5.13;66.48
66385;BME280;53426;55.872;37.462;2023-02-20T06:13:38;97231.41;;;-5.34;66.57
66385;BME280;53426;55.872;37.462;2023-02-20T06:16:05;97242.50;;;-5.32;66.78
66385;BME280;53426;55.872;37.462;2023-02-20T06:18:33;97246.72;;;-5.31;66.69
66385;BME280;53426;55.872;37.462;2023-02-20T06:21:02;97226.66;;;-5.26;66.44
66385;BME280;53426;55.872;37.462;2023-02-20T06:23:36;97257.13;;;-5.03;66.03
66385;BME280;53426;55.872;37.462;2023-02-20T06:26:03;97224.59;;;-5.06;66.20
66385;BME280;53426;55.872;37.462;2023-02-20T06:28:30;97233.19;;;-4.77;65.78
66385;BME280;53426;55.872;37.462;2023-02-20T06:30:55;97253.09;;;-4.93;65.65
66385;BME280;53426;55.872;37.462;2023-02-20T06:33:21;97253.44;;;-4.85;65.28
66385;BME280;53426;55.872;37.462;2023-02-20T06:35:47;97247.78;;;-4.76;64.93
66385;BME280;53426;55.872;37.462;2023-02-20T06:38:13;97251.47;;;-4.66;64.74
66385;BME280;53426;55.872;37.462;2023-02-20T06:40:39;97270.25;;;-4.64;64.27
66385;BME280;53426;55.872;37.462;2023-02-20T06:43:05;97267.31;;;-4.72;64.54
66385;BME280;53426;55.872;37.462;2023-02-20T06:45:34;97258.09;;;-4.61;64.18
66385;BME280;53426;55.872;37.462;2023-02-20T06:48:01;97236.13;;;-4.69;63.94
66385;BME280;53426;55.872;37.462;2023-02-20T06:50:28;97258.09;;;-4.33;64.57
66385;BME280;53426;55.872;37.462;2023-02-20T06:52:57;97252.56;;;-4.27;64.17
66385;BME280;53426;55.872;37.462;2023-02-20T06:55:26;97265.28;;;-4.10;63.39
66385;BME280;53426;55.872;37.462;2023-02-20T06:58:17;97269.81;;;-4.42;63.88
66385;BME280;53426;55.872;37.462;2023-02-20T07:00:43;97269.66;;;-4.53;64.90
66385;BME280;53426;55.872;37.462;2023-02-20T07:03:08;97277.38;;;-4.25;64.87
66385;BME280;53426;55.872;37.462;2023-02-20T07:11:57;97245.13;;;-3.91;63.79
66385;BME280;53426;55.872;37.462;2023-02-20T07:14:25;97263.22;;;-3.91;63.58
66385;BME280;53426;55.872;37.462;2023-02-20T07:16:52;97260.16;;;-3.97;63.46
66385;BME280;53426;55.872;37.462;2023-02-20T07:19:19;97244.25;;;-4.04;63.43
66385;BME280;53426;55.872;37.462;2023-02-20T07:21:45;97279.84;;;-3.95;63.93
66385;BME280;53426;55.872;37.462;2023-02-20T07:24:12;97242.94;;;-4.11;64.02
66385;BME280;53426;55.872;37.462;2023-02-20T07:26:37;97271.59;;;-3.87;64.14
66385;BME280;53426;55.872;37.462;2023-02-20T07:29:05;97268.06;;;-3.72;63.59
66385;BME280;53426;55.872;37.462;2023-02-20T07:31:31;97262.59;;;-3.67;63.20
66385;BME280;53426;55.872;37.462;2023-02-20T07:33:58;97285.88;;;-3.82;62.50
66385;BME280;53426;55.872;37.462;2023-02-20T07:36:26;97273.72;;;-3.80;62.58
66385;BME280;53426;55.872;37.462;2023-02-20T07:38:56;97274.09;;;-3.86;62.60
66385;BME280;53426;55.872;37.462;2023-02-20T07:41:26;97274.22;;;-4.01;62.92
66385;BME280;53426;55.872;37.462;2023-02-20T07:43:55;97274.75;;;-3.96;63.21
66385;BME280;53426;55.872;37.462;2023-02-20T07:46:22;97273.72;;;-3.80;62.39
66385;BME280;53426;55.872;37.462;2023-02-20T07:48:48;97285.44;;;-3.74;62.32
66385;BME280;53426;55.872;37.462;2023-02-20T07:51:22;97273.91;;;-3.83;62.83
66385;BME280;53426;55.872;37.462;2023-02-20T07:53:49;97286.50;;;-3.64;62.05
66385;BME280;53426;55.872;37.462;2023-02-20T07:56:21;97291.44;;;-3.47;62.20
66385;BME280;53426;55.872;37.462;2023-02-20T07:58:51;97294.22;;;-3.23;61.49
66385;BME280;53426;55.872;37.462;2023-02-20T08:01:18;97293.19;;;-3.20;60.48
66385;BME280;53426;55.872;37.462;2023-02-20T08:03:47;97270.53;;;-3.17;60.45
66385;BME280;53426;55.872;37.462;2023-02-20T08:06:17;97294.84;;;-2.80;60.23
66385;BME280;53426;55.872;37.462;2023-02-20T08:08:49;97300.00;;;-2.67;59.79
66385;BME280;53426;55.872;37.462;2023-02-20T08:11:20;97293.50;;;-2.60;59.19
66385;BME280;53426;55.872;37.462;2023-02-20T08:13:47;97306.56;;;-2.49;59.10
66385;BME280;53426;55.872;37.462;2023-02-20T08:16:21;97289.78;;;-2.56;58.55
66385;BME280;53426;55.872;37.462;2023-02-20T08:18:47;97300.97;;;-2.68;58.81
66385;BME280;53426;55.872;37.462;2023-02-20T08:21:14;97301.88;;;-3.21;59.39
66385;BME280;53426;55.872;37.462;2023-02-20T08:23:48;97299.63;;;-3.13;59.70
66385;BME280;53426;55.872;37.462;2023-02-20T08:26:14;97298.13;;;-3.30;60.10
66385;BME280;53426;55.872;37.462;2023-02-20T08:28:41;97301.78;;;-3.20;60.71
66385;BME280;53426;55.872;37.462;2023-02-20T08:31:07;97301.03;;;-2.82;60.14
66385;BME280;53426;55.872;37.462;2023-02-20T08:33:36;97302.31;;;-2.50;58.73
66385;BME280;53426;55.872;37.462;2023-02-20T08:36:09;97286.13;;;-2.66;58.09
66385;BME280;53426;55.872;37.462;2023-02-20T08:38:37;97315.38;;;-2.39;57.92
66385;BME280;53426;55.872;37.462;2023-02-20T08:41:07;97319.00;;;-2.16;57.40
66385;BME280;53426;55.872;37.462;2023-02-20T08:43:34;97310.50;;;-2.18;56.68
66385;BME280;53426;55.872;37.462;2023-02-20T08:46:08;97305.66;;;-2.48;57.10
66385;BME280;53426;55.872;37.462;2023-02-20T08:48:37;97281.28;;;-2.71;57.18
66385;BME280;53426;55.872;37.462;2023-02-20T08:51:04;97310.28;;;-2.78;57.49
66385;BME280;53426;55.872;37.462;2023-02-20T08:53:37;97317.75;;;-2.74;58.13
66385;BME280;53426;55.872;37.462;2023-02-20T08:56:04;97309.13;;;-2.87;57.82
66385;BME280;53426;55.872;37.462;2023-02-20T08:58:31;97291.41;;;-2.80;57.93
66385;BME280;53426;55.872;37.462;2023-02-20T09:00:56;97286.13;;;-2.91;57.36
66385;BME280;53426;55.872;37.462;2023-02-20T09:03:25;97300.22;;;-2.83;57.71
66385;BME280;53426;55.872;37.462;2023-02-20T09:05:52;97285.41;;;-2.81;58.58
66385;BME280;53426;55.872;37.462;2023-02-20T09:08:22;97268.63;;;-2.75;58.05
66385;BME280;53426;55.872;37.462;2023-02-20T09:10:49;97250.38;;;-2.99;57.25
66385;BME280;53426;55.872;37.462;2023-02-20T09:23:22;97330.00;;;-2.38;58.10
66385;BME280;53426;55.872;37.462;2023-02-20T09:25:49;97313.50;;;-2.49;57.93
66385;BME280;53426;55.872;37.462;2023-02-20T09:34:55;97327.50;;;-2.27;57.06
66385;BME280;53426;55.872;37.462;2023-02-20T09:37:23;97334.47;;;-2.27;56.18
66385;BME280;53426;55.872;37.462;2023-02-20T09:39:58;97330.22;;;-2.16;56.21
66385;BME280;53426;55.872;37.462;2023-02-20T09:51:18;97312.00;;;-1.78;54.62
66385;BME280;53426;55.872;37.462;2023-02-20T09:57:00;97313.34;;;-1.72;55.03
66385;BME280;53426;55.872;37.462;2023-02-20T09:59:51;97300.28;;;-1.83;54.31
66385;BME280;53426;55.872;37.462;2023-02-20T10:02:21;97317.28;;;-1.66;54.11
66385;BME280;53426;55.872;37.462;2023-02-20T10:04:50;97316.91;;;-1.49;53.02
66385;BME280;53426;55.872;37.462;2023-02-20T10:09:46;97307.91;;;-1.56;52.32
66385;BME280;53426;55.872;37.462;2023-02-20T10:22:38;97266.41;;;-1.93;53.05
66385;BME280;53426;55.872;37.462;2023-02-20T10:25:15;97323.19;;;-1.64;53.57
66385;BME280;53426;55.872;37.462;2023-02-20T10:28:27;97327.16;;;-1.84;53.20
66385;BME280;53426;55.872;37.462;2023-02-20T10:31:32;97324.03;;;-1.77;53.23
66385;BME280;53426;55.872;37.462;2023-02-20T10:34:06;97320.63;;;-1.90;53.38
66385;BME280;53426;55.872;37.462;2023-02-20T10:36:59;97298.09;;;-2.26;53.85
66385;BME280;53426;55.872;37.462;2023-02-20T10:39:27;97301.19;;;-2.21;53.85
66385;BME280;53426;55.872;37.462;2023-02-20T10:41:58;97309.19;;;-1.14;52.74
66385;BME280;53426;55.872;37.462;2023-02-20T10:44:49;97308.28;;;0.23;51.00
66385;BME280;53426;55.872;37.462;2023-02-20T10:53:00;97275.69;;;0.62;46.27
66385;BME280;53426;55.872;37.462;2023-02-20T10:55:50;97305.22;;;-0.04;48.75
66385;BME280;53426;55.872;37.462;2023-02-20T11:00:55;97304.50;;;-0.39;49.67
66385;BME280;53426;55.872;37.462;2023-02-20T11:03:31;97295.78;;;-0.73;49.73
66385;BME280;53426;55.872;37.462;2023-02-20T11:06:03;97305.09;;;-0.71;50.02
66385;BME280;53426;55.872;37.462;2023-02-20T11:08:31;97303.91;;;-0.78;50.14
66385;BME280;53426;55.872;37.462;2023-02-20T11:11:10;97291.59;;;-0.87;50.77
66385;BME280;53426;55.872;37.462;2023-02-20T11:13:42;97303.19;;;-1.15;50.95
66385;BME280;53426;55.872;37.462;2023-02-20T11:16:20;97312.13;;;-1.19;51.14
66385;BME280;53426;55.872;37.462;2023-02-20T11:18:47;97304.72;;;-1.36;49.97
66385;BME280;53426;55.872;37.462;2023-02-20T11:21:35;97295.13;;;-1.23;51.23
66385;BME280;53426;55.872;37.462;2023-02-20T11:24:25;97299.84;;;-0.93;50.48
66385;BME280;53426;55.872;37.462;2023-02-20T11:27:12;97285.47;;;-0.86;50.15
66385;BME280;53426;55.872;37.462;2023-02-20T11:33:54;97306.03;;;-0.83;49.96
66385;BME280;53426;55.872;37.462;2023-02-20T11:36:24;97264.78;;;-1.22;50.50
66385;BME280;53426;55.872;37.462;2023-02-20T11:38:58;97308.94;;;-0.99;50.67
66385;BME280;53426;55.872;37.462;2023-02-20T11:41:31;97279.88;;;-1.28;51.20
66385;BME280;53426;55.872;37.462;2023-02-20T11:44:18;97292.84;;;-1.28;51.62
66385;BME280;53426;55.872;37.462;2023-02-20T11:46:45;97315.94;;;-1.36;51.84
66385;BME280;53426;55.872;37.462;2023-02-20T11:49:26;97299.63;;;-1.61;51.73
66385;BME280;53426;55.872;37.462;2023-02-20T11:52:07;97312.00;;;-1.65;51.79
66385;BME280;53426;55.872;37.462;2023-02-20T11:54:33;97323.56;;;-1.58;51.52
66385;BME280;53426;55.872;37.462;2023-02-20T12:01:53;97303.56;;;-1.69;51.14
66385;BME280;53426;55.872;37.462;2023-02-20T12:04:22;97326.41;;;-1.61;51.13
66385;BME280;53426;55.872;37.462;2023-02-20T12:06:48;97323.50;;;-1.69;51.34
66385;BME280;53426;55.872;37.462;2023-02-20T12:09:24;97299.06;;;-1.90;51.36
66385;BME280;53426;55.872;37.462;2023-02-20T12:11:53;97331.50;;;-1.72;51.76
66385;BME280;53426;55.872;37.462;2023-02-20T12:14:22;97283.91;;;-1.84;51.27
66385;BME280;53426;55.872;37.462;2023-02-20T12:22:38;97320.91;;;-1.69;51.74
66385;BME280;53426;55.872;37.462;2023-02-20T12:25:23;97323.88;;;-1.86;52.13
66385;BME280;53426;55.872;37.462;2023-02-20T12:40:38;97326.28;;;-2.46;53.40
66385;BME280;53426;55.872;37.462;2023-02-20T12:46:39;97340.97;;;-2.34;53.84
66385;BME280;53426;55.872;37.462;2023-02-20T12:59:13;97317.47;;;-2.57;52.92
66385;BME280;53426;55.872;37.462;2023-02-20T13:01:43;97304.44;;;-2.95;53.21
66385;BME280;53426;55.872;37.462;2023-02-20T13:04:29;97308.63;;;-2.79;53.52
66385;BME280;53426;55.872;37.462;2023-02-20T13:07:05;97295.25;;;-2.86;53.38
66385;BME280;53426;55.872;37.462;2023-02-20T13:09:43;97299.38;;;-2.83;53.48
66385;BME280;53426;55.872;37.462;2023-02-20T13:12:18;97290.50;;;-2.79;53.32
66385;BME280;53426;55.872;37.462;2023-02-20T13:21:28;97285.28;;;-2.92;53.75
66385;BME280;53426;55.872;37.462;2023-02-20T13:27:38;97293.44;;;-2.98;55.20
66385;BME280;53426;55.872;37.462;2023-02-20T13:34:38;97325.88;;;-2.92;55.92
66385;BME280;53426;55.872;37.462;2023-02-20T13:36:41;97305.81;;;-3.16;56.12
66385;BME280;53426;55.872;37.462;2023-02-20T13:44:41;97277.13;;;-3.52;56.87
66385;BME280;53426;55.872;37.462;2023-02-20T13:55:53;97329.69;;;-3.52;57.53
66385;BME280;53426;55.872;37.462;2023-02-20T13:58:15;97328.72;;;-3.63;57.84
66385;BME280;53426;55.872;37.462;2023-02-20T14:04:29;97263.38;;;-4.20;57.47
66385;BME280;53426;55.872;37.462;2023-02-20T14:07:05;97306.91;;;-4.00;57.68
66385;BME280;53426;55.872;37.462;2023-02-20T14:09:31;97291.50;;;-4.16;57.53
66385;BME280;53426;55.872;37.462;2023-02-20T14:12:12;97328.03;;;-3.94;57.78
66385;BME280;53426;55.872;37.462;2023-02-20T14:15:05;97336.88;;;-3.98;57.58
66385;BME280;53426;55.872;37.462;2023-02-20T14:17:40;97277.41;;;-4.53;57.48
66385;BME280;53426;55.872;37.462;2023-02-20T14:20:18;97332.09;;;-4.18;57.93
66385;BME280;53426;55.872;37.462;2023-02-20T14:22:47;97335.16;;;-4.26;58.65
66385;BME280;53426;55.872;37.462;2023-02-20T14:25:24;97333.19;;;-4.22;58.85
66385;BME280;53426;55.872;37.462;2023-02-20T14:28:05;97341.78;;;-4.07;58.72
66385;BME280;53426;55.872;37.462;2023-02-20T14:30:33;97344.84;;;-4.15;58.87
66385;BME280;53426;55.872;37.462;2023-02-20T14:45:41;97347.50;;;-4.16;58.60
66385;BME280;53426;55.872;37.462;2023-02-20T14:48:40;97353.78;;;-4.20;59.00
66385;BME280;53426;55.872;37.462;2023-02-20T14:51:16;97309.03;;;-4.49;59.06
66385;BME280;53426;55.872;37.462;2023-02-20T14:53:56;97358.00;;;-4.19;59.42
66385;BME280;53426;55.872;37.462;2023-02-20T14:56:26;97325.81;;;-4.42;58.87
66385;BME280;53426;55.872;37.462;2023-02-20T14:58:52;97340.84;;;-4.35;59.53
66385;BME280;53426;55.872;37.462;2023-02-20T15:01:32;97347.19;;;-4.40;59.12
66385;BME280;53426;55.872;37.462;2023-02-20T15:04:05;97335.63;;;-4.63;59.61
66385;BME280;53426;55.872;37.462;2023-02-20T15:06:34;97340.38;;;-4.55;59.49
66385;BME280;53426;55.872;37.462;2023-02-20T15:09:07;97319.06;;;-4.59;59.52
66385;BME280;53426;55.872;37.462;2023-02-20T15:11:34;97350.34;;;-4.49;58.69
66385;BME280;53426;55.872;37.462;2023-02-20T15:14:02;97329.47;;;-4.75;59.24
66385;BME280;53426;55.872;37.462;2023-02-20T15:16:31;97354.72;;;-4.66;58.71
66385;BME280;53426;55.872;37.462;2023-02-20T15:19:00;97359.50;;;-4.74;59.31
66385;BME280;53426;55.872;37.462;2023-02-20T15:21:35;97359.91;;;-4.66;59.82
66385;BME280;53426;55.872;37.462;2023-02-20T15:28:09;97317.66;;;-5.09;59.77
66385;BME280;53426;55.872;37.462;2023-02-20T15:34:05;97316.84;;;-4.95;60.33
66385;BME280;53426;55.872;37.462;2023-02-20T15:36:27;97353.38;;;-4.87;59.86
66385;BME280;53426;55.872;37.462;2023-02-20T15:39:37;97297.97;;;-5.25;60.20
66385;BME280;53426;55.872;37.462;2023-02-20T15:42:12;97334.19;;;-5.13;60.08
66385;BME280;53426;55.872;37.462;2023-02-20T15:44:41;97283.53;;;-5.43;60.15
66385;BME280;53426;55.872;37.462;2023-02-20T15:47:07;97347.78;;;-5.09;60.45
66385;BME280;53426;55.872;37.462;2023-02-20T15:49:35;97349.53;;;-5.10;61.12
66385;BME280;53426;55.872;37.462;2023-02-20T15:52:02;97342.31;;;-5.19;61.11
66385;BME280;53426;55.872;37.462;2023-02-20T15:54:30;97328.25;;;-5.29;61.28
66385;BME280;53426;55.872;37.462;2023-02-20T15:56:59;97347.38;;;-5.17;61.49
66385;BME280;53426;55.872;37.462;2023-02-20T15:59:25;97335.41;;;-5.18;61.60
66385;BME280;53426;55.872;37.462;2023-02-20T16:01:56;97313.75;;;-5.45;61.85
66385;BME280;53426;55.872;37.462;2023-02-20T16:04:27;97282.66;;;-5.74;61.79
66385;BME280;53426;55.872;37.462;2023-02-20T16:11:09;97322.72;;;-5.68;62.45
66385;BME280;53426;55.872;37.462;2023-02-20T16:13:39;97339.59;;;-5.63;63.16
66385;BME280;53426;55.872;37.462;2023-02-20T16:16:17;97343.59;;;-5.57;64.09